JBU2001 KBUF-KJFK
Flight info
| Callsign | JBU2001 |
|---|---|
| Flight time | 0h 57m |
| Altitude | 27000 |
| Route | GEE BEEPS MEMMS PUCKY1 |
| Aircraft | A320/M-SDE3FGHIRWY/LB1 |
Departure
| Time | 2026-04-30 11:28 |
|---|---|
| Airport | Buffalo Niagara International Airport (KBUF) |
Arrival
| Time | 2026-04-30 12:25 |
|---|---|
| Airport | John F. Kennedy International Airport (KJFK) |
| Time | Latitude | Longitude | Altitude | Speed | Heading |
|---|---|---|---|---|---|
| 2026-04-30 11:06 | 42.93690 | -78.72997 | 723 ft | 0 kts | 143° |
| 2026-04-30 11:19 | 42.93691 | -78.72998 | 724 ft | 1 kts | 141° |
| 2026-04-30 11:19 | 42.93710 | -78.73018 | 724 ft | 4 kts | 139° |
| 2026-04-30 11:20 | 42.93726 | -78.73044 | 722 ft | 4 kts | 99° |
| 2026-04-30 11:20 | 42.93726 | -78.73058 | 723 ft | 0 kts | 44° |
| 2026-04-30 11:23 | 42.93758 | -78.73016 | 724 ft | 11 kts | 43° |
| 2026-04-30 11:24 | 42.93845 | -78.72973 | 724 ft | 15 kts | 5° |
| 2026-04-30 11:24 | 42.93938 | -78.72892 | 725 ft | 17 kts | 42° |
| 2026-04-30 11:24 | 42.94032 | -78.72772 | 726 ft | 20 kts | 43° |
| 2026-04-30 11:25 | 42.94243 | -78.72494 | 728 ft | 23 kts | 44° |
| 2026-04-30 11:25 | 42.94353 | -78.72348 | 728 ft | 21 kts | 44° |
| 2026-04-30 11:25 | 42.94545 | -78.72094 | 727 ft | 19 kts | 44° |
| 2026-04-30 11:26 | 42.94685 | -78.72053 | 728 ft | 10 kts | 311° |
| 2026-04-30 11:26 | 42.94683 | -78.72129 | 728 ft | 3 kts | 222° |
| 2026-04-30 11:26 | 42.94680 | -78.72133 | 729 ft | 0 kts | 221° |
| 2026-04-30 11:27 | 42.94627 | -78.72200 | 728 ft | 39 kts | 223° |
| 2026-04-30 11:27 | 42.94259 | -78.72678 | 727 ft | 104 kts | 224° |
| 2026-04-30 11:27 | 42.93613 | -78.73524 | 727 ft | 152 kts | 224° |
| 2026-04-30 11:27 | 42.92794 | -78.74570 | 1101 ft | 163 kts | 223° |
| 2026-04-30 11:28 | 42.91073 | -78.76793 | 1879 ft | 188 kts | 228° |
| 2026-04-30 11:28 | 42.90102 | -78.78139 | 2151 ft | 211 kts | 228° |
| 2026-04-30 11:28 | 42.89014 | -78.79643 | 2492 ft | 235 kts | 226° |
| 2026-04-30 11:29 | 42.87561 | -78.80856 | 2943 ft | 258 kts | 197° |
| 2026-04-30 11:29 | 42.85740 | -78.80870 | 3673 ft | 272 kts | 164° |
| 2026-04-30 11:29 | 42.83370 | -78.77059 | 5317 ft | 282 kts | 96° |
| 2026-04-30 11:30 | 42.83277 | -78.71699 | 7002 ft | 286 kts | 87° |
| 2026-04-30 11:30 | 42.83351 | -78.68967 | 7744 ft | 291 kts | 87° |
| 2026-04-30 11:30 | 42.83421 | -78.66196 | 8500 ft | 295 kts | 87° |
| 2026-04-30 11:31 | 42.83473 | -78.63374 | 9245 ft | 300 kts | 88° |
| 2026-04-30 11:31 | 42.83507 | -78.60508 | 9954 ft | 305 kts | 89° |
| 2026-04-30 11:31 | 42.83528 | -78.57560 | 10337 ft | 322 kts | 89° |
| 2026-04-30 11:31 | 42.83541 | -78.54401 | 10488 ft | 345 kts | 89° |
| 2026-04-30 11:32 | 42.83548 | -78.51049 | 10760 ft | 361 kts | 90° |
| 2026-04-30 11:32 | 42.83553 | -78.47602 | 11349 ft | 366 kts | 90° |
| 2026-04-30 11:32 | 42.83555 | -78.44126 | 12010 ft | 369 kts | 90° |
| 2026-04-30 11:33 | 42.83559 | -78.37085 | 13365 ft | 374 kts | 90° |
| 2026-04-30 11:33 | 42.83561 | -78.33530 | 13995 ft | 377 kts | 90° |
| 2026-04-30 11:33 | 42.83564 | -78.29944 | 14541 ft | 380 kts | 90° |
| 2026-04-30 11:33 | 42.83566 | -78.26324 | 15060 ft | 384 kts | 91° |
| 2026-04-30 11:34 | 42.83566 | -78.22661 | 15578 ft | 389 kts | 91° |
| 2026-04-30 11:34 | 42.83564 | -78.18961 | 16087 ft | 393 kts | 91° |
| 2026-04-30 11:34 | 42.83560 | -78.15271 | 16588 ft | 397 kts | 91° |
| 2026-04-30 11:34 | 42.83556 | -78.11486 | 17108 ft | 401 kts | 91° |
| 2026-04-30 11:35 | 42.83550 | -78.07664 | 17629 ft | 406 kts | 92° |
| 2026-04-30 11:35 | 42.83540 | -78.03798 | 18160 ft | 410 kts | 92° |
| 2026-04-30 11:35 | 42.83528 | -77.99892 | 18636 ft | 414 kts | 92° |
| 2026-04-30 11:35 | 42.83518 | -77.95954 | 19137 ft | 418 kts | 92° |
| 2026-04-30 11:36 | 42.83508 | -77.91982 | 19645 ft | 421 kts | 92° |
| 2026-04-30 11:36 | 42.83495 | -77.87984 | 20167 ft | 424 kts | 92° |
| 2026-04-30 11:36 | 42.83481 | -77.83955 | 20668 ft | 427 kts | 92° |
| 2026-04-30 11:36 | 42.83466 | -77.79901 | 21147 ft | 430 kts | 92° |
| 2026-04-30 11:37 | 42.83450 | -77.75810 | 21611 ft | 433 kts | 92° |
| 2026-04-30 11:37 | 42.83430 | -77.71686 | 22065 ft | 436 kts | 93° |
| 2026-04-30 11:37 | 42.83384 | -77.67548 | 22501 ft | 439 kts | 93° |
| 2026-04-30 11:37 | 42.83316 | -77.63371 | 22944 ft | 442 kts | 94° |
| 2026-04-30 11:38 | 42.83234 | -77.59177 | 23350 ft | 445 kts | 94° |
| 2026-04-30 11:38 | 42.83147 | -77.54945 | 23708 ft | 448 kts | 94° |
| 2026-04-30 11:38 | 42.83062 | -77.50694 | 24038 ft | 451 kts | 94° |
| 2026-04-30 11:38 | 42.82981 | -77.46410 | 24371 ft | 454 kts | 94° |
| 2026-04-30 11:39 | 42.82901 | -77.42107 | 24692 ft | 456 kts | 94° |
| 2026-04-30 11:39 | 42.82822 | -77.37763 | 25015 ft | 459 kts | 94° |
| 2026-04-30 11:39 | 42.82745 | -77.33404 | 25327 ft | 462 kts | 94° |
| 2026-04-30 11:39 | 42.82667 | -77.29023 | 25633 ft | 464 kts | 94° |
| 2026-04-30 11:40 | 42.82586 | -77.24613 | 25945 ft | 467 kts | 95° |
| 2026-04-30 11:40 | 42.82499 | -77.20184 | 26235 ft | 469 kts | 95° |
| 2026-04-30 11:40 | 42.82406 | -77.15794 | 26549 ft | 471 kts | 95° |
| 2026-04-30 11:40 | 42.82309 | -77.11319 | 26825 ft | 474 kts | 95° |
| 2026-04-30 11:41 | 42.82213 | -77.06836 | 26891 ft | 474 kts | 95° |
| 2026-04-30 11:41 | 42.81927 | -77.02388 | 26894 ft | 469 kts | 104° |
| 2026-04-30 11:41 | 42.81174 | -76.98096 | 26893 ft | 463 kts | 113° |
| 2026-04-30 11:41 | 42.79986 | -76.94057 | 26892 ft | 457 kts | 121° |
| 2026-04-30 11:42 | 42.78435 | -76.90311 | 26893 ft | 453 kts | 127° |
| 2026-04-30 11:42 | 42.76799 | -76.86636 | 26880 ft | 454 kts | 127° |
| 2026-04-30 11:42 | 42.75168 | -76.82966 | 26877 ft | 453 kts | 127° |
| 2026-04-30 11:42 | 42.73543 | -76.79302 | 26882 ft | 452 kts | 127° |
| 2026-04-30 11:43 | 42.71916 | -76.75638 | 26882 ft | 452 kts | 127° |
| 2026-04-30 11:43 | 42.70289 | -76.71980 | 26884 ft | 452 kts | 127° |
| 2026-04-30 11:43 | 42.68660 | -76.68324 | 26880 ft | 452 kts | 127° |
| 2026-04-30 11:43 | 42.67030 | -76.64673 | 26883 ft | 452 kts | 127° |
| 2026-04-30 11:44 | 42.65397 | -76.61020 | 26888 ft | 452 kts | 127° |
| 2026-04-30 11:44 | 42.63767 | -76.57370 | 26857 ft | 452 kts | 127° |
| 2026-04-30 11:44 | 42.62136 | -76.53721 | 26855 ft | 452 kts | 127° |
| 2026-04-30 11:44 | 42.60498 | -76.50068 | 26833 ft | 453 kts | 127° |
| 2026-04-30 11:45 | 42.58859 | -76.46421 | 26866 ft | 453 kts | 127° |
| 2026-04-30 11:45 | 42.57213 | -76.42761 | 26875 ft | 454 kts | 127° |
| 2026-04-30 11:45 | 42.55569 | -76.39108 | 26876 ft | 454 kts | 127° |
| 2026-04-30 11:45 | 42.53923 | -76.35457 | 26877 ft | 454 kts | 127° |
| 2026-04-30 11:46 | 42.52273 | -76.31801 | 26879 ft | 454 kts | 127° |
| 2026-04-30 11:46 | 42.50626 | -76.28151 | 26879 ft | 454 kts | 127° |
| 2026-04-30 11:46 | 42.48981 | -76.24503 | 26878 ft | 454 kts | 127° |
| 2026-04-30 11:46 | 42.47333 | -76.20861 | 26872 ft | 453 kts | 127° |
| 2026-04-30 11:47 | 42.45683 | -76.17219 | 26869 ft | 453 kts | 127° |
| 2026-04-30 11:47 | 42.44035 | -76.13582 | 26831 ft | 453 kts | 127° |
| 2026-04-30 11:47 | 42.42383 | -76.09948 | 26826 ft | 453 kts | 127° |
| 2026-04-30 11:47 | 42.40733 | -76.06321 | 26830 ft | 452 kts | 127° |
| 2026-04-30 11:48 | 42.39085 | -76.02699 | 26834 ft | 452 kts | 127° |
| 2026-04-30 11:48 | 42.37434 | -75.99080 | 26843 ft | 452 kts | 127° |
| 2026-04-30 11:48 | 42.35805 | -75.95512 | 26837 ft | 452 kts | 127° |
| 2026-04-30 11:48 | 42.34155 | -75.91899 | 26821 ft | 452 kts | 127° |
| 2026-04-30 11:49 | 42.32500 | -75.88284 | 26821 ft | 452 kts | 127° |
| 2026-04-30 11:49 | 42.30842 | -75.84673 | 26823 ft | 452 kts | 127° |
| 2026-04-30 11:49 | 42.29183 | -75.81061 | 26823 ft | 452 kts | 127° |
| 2026-04-30 11:49 | 42.27524 | -75.77451 | 26793 ft | 452 kts | 127° |
| 2026-04-30 11:50 | 42.25868 | -75.73839 | 26801 ft | 452 kts | 127° |
| 2026-04-30 11:50 | 42.24212 | -75.70233 | 26798 ft | 452 kts | 127° |
| 2026-04-30 11:50 | 42.22553 | -75.66636 | 26820 ft | 452 kts | 127° |
| 2026-04-30 11:50 | 42.20891 | -75.63038 | 26810 ft | 452 kts | 127° |
| 2026-04-30 11:51 | 42.19234 | -75.59445 | 26813 ft | 451 kts | 127° |
| 2026-04-30 11:51 | 42.17573 | -75.55850 | 26823 ft | 451 kts | 127° |
| 2026-04-30 11:51 | 42.15913 | -75.52262 | 26825 ft | 451 kts | 127° |
| 2026-04-30 11:51 | 42.14253 | -75.48674 | 26819 ft | 451 kts | 127° |
| 2026-04-30 11:52 | 42.12591 | -75.45087 | 26818 ft | 451 kts | 127° |
| 2026-04-30 11:52 | 42.10926 | -75.41506 | 26789 ft | 451 kts | 128° |
| 2026-04-30 11:52 | 42.09261 | -75.37926 | 26796 ft | 451 kts | 128° |
| 2026-04-30 11:52 | 42.07686 | -75.34265 | 26788 ft | 455 kts | 121° |
| 2026-04-30 11:53 | 42.06496 | -75.30289 | 26776 ft | 462 kts | 112° |
| 2026-04-30 11:53 | 42.05768 | -75.26062 | 26781 ft | 468 kts | 102° |
| 2026-04-30 11:53 | 42.05331 | -75.21713 | 26785 ft | 469 kts | 102° |
| 2026-04-30 11:53 | 42.04890 | -75.17368 | 26785 ft | 469 kts | 102° |
| 2026-04-30 11:54 | 42.04436 | -75.13019 | 26789 ft | 469 kts | 102° |
| 2026-04-30 11:54 | 42.03977 | -75.08674 | 26794 ft | 470 kts | 102° |
| 2026-04-30 11:54 | 42.03518 | -75.04325 | 26771 ft | 470 kts | 102° |
| 2026-04-30 11:54 | 42.03214 | -75.01448 | 26778 ft | 469 kts | 102° |
| 2026-04-30 11:55 | 42.02754 | -74.97104 | 26788 ft | 469 kts | 102° |
| 2026-04-30 11:55 | 42.02296 | -74.92759 | 26799 ft | 469 kts | 102° |
| 2026-04-30 11:55 | 42.01837 | -74.88412 | 26814 ft | 469 kts | 102° |
| 2026-04-30 11:55 | 42.01376 | -74.84075 | 26823 ft | 469 kts | 102° |
| 2026-04-30 11:56 | 42.00912 | -74.79739 | 26826 ft | 468 kts | 103° |
| 2026-04-30 11:56 | 42.00446 | -74.75402 | 26828 ft | 468 kts | 103° |
| 2026-04-30 11:56 | 41.99983 | -74.71071 | 26828 ft | 468 kts | 103° |
| 2026-04-30 11:56 | 41.99517 | -74.66745 | 26826 ft | 468 kts | 103° |
| 2026-04-30 11:57 | 41.99046 | -74.62420 | 26826 ft | 468 kts | 103° |
| 2026-04-30 11:57 | 41.98569 | -74.58096 | 26823 ft | 468 kts | 103° |
| 2026-04-30 11:57 | 41.98083 | -74.53779 | 26820 ft | 466 kts | 105° |
| 2026-04-30 11:57 | 41.97294 | -74.49585 | 26814 ft | 460 kts | 114° |
| 2026-04-30 11:58 | 41.96075 | -74.45631 | 26809 ft | 454 kts | 122° |
| 2026-04-30 11:58 | 41.94482 | -74.42016 | 26778 ft | 447 kts | 131° |
| 2026-04-30 11:58 | 41.92621 | -74.38692 | 26783 ft | 445 kts | 133° |
| 2026-04-30 11:58 | 41.90736 | -74.35387 | 26745 ft | 446 kts | 133° |
| 2026-04-30 11:59 | 41.88873 | -74.32122 | 26797 ft | 447 kts | 133° |
| 2026-04-30 11:59 | 41.86978 | -74.28801 | 26806 ft | 448 kts | 133° |
| 2026-04-30 11:59 | 41.85082 | -74.25483 | 26810 ft | 448 kts | 133° |
| 2026-04-30 11:59 | 41.83189 | -74.22167 | 26815 ft | 448 kts | 133° |
| 2026-04-30 12:00 | 41.81296 | -74.18855 | 26820 ft | 447 kts | 133° |
| 2026-04-30 12:00 | 41.79400 | -74.15550 | 26821 ft | 447 kts | 133° |
| 2026-04-30 12:00 | 41.77499 | -74.12256 | 26822 ft | 446 kts | 135° |
| 2026-04-30 12:00 | 41.75359 | -74.09321 | 26804 ft | 436 kts | 146° |
| 2026-04-30 12:01 | 41.72915 | -74.07041 | 26547 ft | 420 kts | 157° |
| 2026-04-30 12:01 | 41.70298 | -74.05465 | 26048 ft | 407 kts | 167° |
| 2026-04-30 12:01 | 41.67586 | -74.04590 | 25522 ft | 395 kts | 177° |
| 2026-04-30 12:01 | 41.64877 | -74.04362 | 25019 ft | 385 kts | 186° |
| 2026-04-30 12:02 | 41.62238 | -74.04684 | 24523 ft | 379 kts | 191° |
| 2026-04-30 12:02 | 41.59630 | -74.05094 | 24051 ft | 376 kts | 191° |
| 2026-04-30 12:02 | 41.57044 | -74.05494 | 23560 ft | 371 kts | 191° |
| 2026-04-30 12:02 | 41.54492 | -74.05885 | 23054 ft | 368 kts | 191° |
| 2026-04-30 12:03 | 41.51950 | -74.06272 | 22592 ft | 365 kts | 191° |
| 2026-04-30 12:03 | 41.46950 | -74.07037 | 21707 ft | 359 kts | 191° |
| 2026-04-30 12:03 | 41.44485 | -74.07418 | 21303 ft | 355 kts | 191° |
| 2026-04-30 12:04 | 41.42046 | -74.07799 | 20896 ft | 351 kts | 191° |
| 2026-04-30 12:04 | 41.39632 | -74.08176 | 20485 ft | 348 kts | 191° |
| 2026-04-30 12:04 | 41.37258 | -74.08651 | 20075 ft | 341 kts | 198° |
| 2026-04-30 12:04 | 41.35032 | -74.09619 | 19665 ft | 333 kts | 207° |
| 2026-04-30 12:05 | 41.33009 | -74.11073 | 19215 ft | 339 kts | 216° |
| 2026-04-30 12:05 | 41.31019 | -74.12788 | 18761 ft | 342 kts | 215° |
| 2026-04-30 12:05 | 41.29024 | -74.14498 | 18292 ft | 340 kts | 216° |
| 2026-04-30 12:05 | 41.27041 | -74.16197 | 17853 ft | 337 kts | 216° |
| 2026-04-30 12:06 | 41.25065 | -74.17881 | 17491 ft | 337 kts | 216° |
| 2026-04-30 12:06 | 41.23087 | -74.19561 | 17043 ft | 336 kts | 216° |
| 2026-04-30 12:06 | 41.21123 | -74.21230 | 16597 ft | 334 kts | 216° |
| 2026-04-30 12:06 | 41.19167 | -74.22892 | 16153 ft | 333 kts | 216° |
| 2026-04-30 12:07 | 41.17216 | -74.24551 | 15709 ft | 332 kts | 216° |
| 2026-04-30 12:07 | 41.15272 | -74.26200 | 15271 ft | 331 kts | 215° |
| 2026-04-30 12:07 | 41.13335 | -74.27844 | 14836 ft | 330 kts | 215° |
| 2026-04-30 12:07 | 41.11406 | -74.29482 | 14382 ft | 329 kts | 216° |
| 2026-04-30 12:08 | 41.09481 | -74.31114 | 13962 ft | 328 kts | 216° |
| 2026-04-30 12:08 | 41.07566 | -74.32735 | 13510 ft | 326 kts | 215° |
| 2026-04-30 12:08 | 41.05481 | -74.33926 | 13052 ft | 331 kts | 195° |
| 2026-04-30 12:08 | 41.03165 | -74.33901 | 12593 ft | 340 kts | 171° |
| 2026-04-30 12:09 | 41.01023 | -74.32527 | 12137 ft | 350 kts | 144° |
| 2026-04-30 12:09 | 40.99453 | -74.30032 | 11663 ft | 356 kts | 127° |
| 2026-04-30 12:09 | 40.98103 | -74.27287 | 11167 ft | 354 kts | 127° |
| 2026-04-30 12:09 | 40.96773 | -74.24554 | 10691 ft | 352 kts | 127° |
| 2026-04-30 12:10 | 40.95472 | -74.21871 | 10474 ft | 337 kts | 127° |
| 2026-04-30 12:10 | 40.94254 | -74.19354 | 10344 ft | 313 kts | 127° |
| 2026-04-30 12:10 | 40.93114 | -74.17009 | 10224 ft | 295 kts | 128° |
| 2026-04-30 12:10 | 40.92024 | -74.14794 | 10079 ft | 287 kts | 128° |
| 2026-04-30 12:11 | 40.90938 | -74.12595 | 9988 ft | 286 kts | 128° |
| 2026-04-30 12:11 | 40.89831 | -74.10352 | 9544 ft | 288 kts | 127° |
| 2026-04-30 12:11 | 40.88761 | -74.08164 | 9119 ft | 286 kts | 127° |
| 2026-04-30 12:11 | 40.87677 | -74.05937 | 8707 ft | 283 kts | 127° |
| 2026-04-30 12:12 | 40.86631 | -74.03790 | 8310 ft | 280 kts | 126° |
| 2026-04-30 12:12 | 40.85576 | -74.01635 | 7931 ft | 278 kts | 126° |
| 2026-04-30 12:12 | 40.84532 | -73.99501 | 7534 ft | 276 kts | 126° |
| 2026-04-30 12:12 | 40.83504 | -73.97396 | 7308 ft | 268 kts | 126° |
| 2026-04-30 12:13 | 40.82506 | -73.95352 | 7023 ft | 262 kts | 126° |
| 2026-04-30 12:13 | 40.81526 | -73.93334 | 6682 ft | 260 kts | 126° |
| 2026-04-30 12:13 | 40.80558 | -73.91350 | 6467 ft | 252 kts | 126° |
| 2026-04-30 12:13 | 40.79614 | -73.89432 | 6171 ft | 247 kts | 126° |
| 2026-04-30 12:14 | 40.78673 | -73.87543 | 5793 ft | 246 kts | 125° |
| 2026-04-30 12:14 | 40.77734 | -73.85666 | 5422 ft | 244 kts | 125° |
| 2026-04-30 12:14 | 40.76818 | -73.83786 | 5035 ft | 243 kts | 124° |
| 2026-04-30 12:14 | 40.75970 | -73.81868 | 4638 ft | 242 kts | 113° |
| 2026-04-30 12:15 | 40.75223 | -73.79884 | 4198 ft | 241 kts | 122° |
| 2026-04-30 12:15 | 40.74321 | -73.78052 | 3992 ft | 238 kts | 124° |
| 2026-04-30 12:15 | 40.73350 | -73.76257 | 4004 ft | 242 kts | 126° |
| 2026-04-30 12:15 | 40.72486 | -73.74352 | 4009 ft | 243 kts | 119° |
| 2026-04-30 12:16 | 40.71898 | -73.72279 | 4007 ft | 242 kts | 102° |
| 2026-04-30 12:16 | 40.71568 | -73.70106 | 3999 ft | 241 kts | 99° |
| 2026-04-30 12:16 | 40.71274 | -73.67933 | 3702 ft | 240 kts | 99° |
| 2026-04-30 12:16 | 40.70985 | -73.65768 | 3389 ft | 239 kts | 99° |
| 2026-04-30 12:17 | 40.70543 | -73.61445 | 2995 ft | 238 kts | 82° |
| 2026-04-30 12:17 | 40.71059 | -73.59379 | 2997 ft | 240 kts | 62° |
| 2026-04-30 12:17 | 40.71834 | -73.57437 | 2997 ft | 240 kts | 59° |
| 2026-04-30 12:18 | 40.72644 | -73.55516 | 2996 ft | 239 kts | 59° |
| 2026-04-30 12:18 | 40.73458 | -73.53603 | 2998 ft | 239 kts | 59° |
| 2026-04-30 12:18 | 40.74383 | -73.51802 | 2992 ft | 233 kts | 42° |
| 2026-04-30 12:18 | 40.75677 | -73.50704 | 2993 ft | 215 kts | 15° |
| 2026-04-30 12:19 | 40.77123 | -73.50435 | 2995 ft | 209 kts | 351° |
| 2026-04-30 12:19 | 40.78497 | -73.50943 | 2990 ft | 204 kts | 328° |
| 2026-04-30 12:19 | 40.79584 | -73.52107 | 2998 ft | 201 kts | 306° |
| 2026-04-30 12:19 | 40.80227 | -73.53717 | 2992 ft | 199 kts | 284° |
| 2026-04-30 12:20 | 40.80353 | -73.55520 | 2989 ft | 198 kts | 264° |
| 2026-04-30 12:20 | 40.80205 | -73.57341 | 2986 ft | 200 kts | 264° |
| 2026-04-30 12:20 | 40.80061 | -73.59162 | 2989 ft | 199 kts | 264° |
| 2026-04-30 12:20 | 40.79912 | -73.60911 | 3017 ft | 186 kts | 260° |
| 2026-04-30 12:21 | 40.79521 | -73.62505 | 2992 ft | 182 kts | 245° |
| 2026-04-30 12:21 | 40.78837 | -73.63895 | 2986 ft | 181 kts | 231° |
| 2026-04-30 12:21 | 40.77861 | -73.64954 | 2991 ft | 183 kts | 216° |
| 2026-04-30 12:21 | 40.76779 | -73.65859 | 2848 ft | 185 kts | 214° |
| 2026-04-30 12:22 | 40.75679 | -73.66735 | 2620 ft | 183 kts | 214° |
| 2026-04-30 12:22 | 40.74620 | -73.67569 | 2407 ft | 174 kts | 214° |
| 2026-04-30 12:22 | 40.73593 | -73.68377 | 2167 ft | 170 kts | 213° |
| 2026-04-30 12:22 | 40.72583 | -73.69170 | 1934 ft | 168 kts | 212° |
| 2026-04-30 12:23 | 40.71585 | -73.69953 | 1705 ft | 162 kts | 212° |
| 2026-04-30 12:23 | 40.70642 | -73.70692 | 1487 ft | 155 kts | 212° |
| 2026-04-30 12:23 | 40.69727 | -73.71409 | 1277 ft | 153 kts | 211° |
| 2026-04-30 12:23 | 40.68817 | -73.72125 | 1076 ft | 152 kts | 211° |
| 2026-04-30 12:24 | 40.67910 | -73.72828 | 876 ft | 149 kts | 211° |
| 2026-04-30 12:24 | 40.67027 | -73.73500 | 661 ft | 148 kts | 210° |
| 2026-04-30 12:24 | 40.66155 | -73.74217 | 459 ft | 147 kts | 209° |
| 2026-04-30 12:24 | 40.65268 | -73.74895 | 250 ft | 147 kts | 210° |
| 2026-04-30 12:25 | 40.64399 | -73.75569 | 53 ft | 143 kts | 209° |
| 2026-04-30 12:25 | 40.63539 | -73.76235 | 23 ft | 134 kts | 210° |
| 2026-04-30 12:25 | 40.62981 | -73.76708 | 21 ft | 80 kts | 220° |
| 2026-04-30 12:25 | 40.62599 | -73.77012 | 24 ft | 32 kts | 219° |
| 2026-04-30 12:26 | 40.62602 | -73.77215 | 27 ft | 20 kts | 313° |
| 2026-04-30 12:26 | 40.62706 | -73.77261 | 27 ft | 17 kts | 347° |
| 2026-04-30 12:26 | 40.62788 | -73.77209 | 25 ft | 14 kts | 30° |
| 2026-04-30 12:26 | 40.62880 | -73.77138 | 24 ft | 16 kts | 31° |
| 2026-04-30 12:27 | 40.62988 | -73.77052 | 23 ft | 20 kts | 31° |
| 2026-04-30 12:27 | 40.63104 | -73.76968 | 22 ft | 10 kts | 22° |
| 2026-04-30 12:27 | 40.63116 | -73.76965 | 22 ft | 0 kts | 12° |
| 2026-04-30 12:28 | 40.63117 | -73.76964 | 22 ft | 1 kts | 12° |
| 2026-04-30 12:28 | 40.63126 | -73.76962 | 22 ft | 2 kts | 12° |
| 2026-04-30 12:28 | 40.63144 | -73.76957 | 22 ft | 4 kts | 11° |
| 2026-04-30 12:28 | 40.63199 | -73.76949 | 22 ft | 12 kts | 1° |
| 2026-04-30 12:29 | 40.63302 | -73.76947 | 22 ft | 17 kts | 358° |
| 2026-04-30 12:29 | 40.63388 | -73.77049 | 22 ft | 18 kts | 301° |
| 2026-04-30 12:29 | 40.63454 | -73.77193 | 25 ft | 19 kts | 301° |
| 2026-04-30 12:29 | 40.63497 | -73.77289 | 23 ft | 5 kts | 300° |
| 2026-04-30 12:30 | 40.63516 | -73.77331 | 23 ft | 0 kts | 300° |
| 2026-04-30 12:32 | 40.63517 | -73.77333 | 23 ft | 2 kts | 300° |
| 2026-04-30 12:32 | 40.63528 | -73.77359 | 23 ft | 4 kts | 300° |
| 2026-04-30 12:32 | 40.63546 | -73.77400 | 23 ft | 6 kts | 300° |
| 2026-04-30 12:32 | 40.63582 | -73.77484 | 23 ft | 15 kts | 298° |
| 2026-04-30 12:33 | 40.63661 | -73.77628 | 20 ft | 21 kts | 310° |
| 2026-04-30 12:33 | 40.63627 | -73.77732 | 21 ft | 15 kts | 213° |
| 2026-04-30 12:33 | 40.63569 | -73.77826 | 22 ft | 12 kts | 274° |
| 2026-04-30 12:33 | 40.63608 | -73.77887 | 23 ft | 9 kts | 347° |
| 2026-04-30 12:34 | 40.63675 | -73.77899 | 23 ft | 11 kts | 353° |
| 2026-04-30 12:34 | 40.63743 | -73.77910 | 23 ft | 7 kts | 352° |
| 2026-04-30 12:34 | 40.63761 | -73.77914 | 25 ft | 0 kts | 352° |
| 2026-04-30 12:35 | 40.63762 | -73.77914 | 25 ft | 0 kts | 352° |
| 2026-04-30 12:35 | 40.63773 | -73.77916 | 23 ft | 3 kts | 352° |
| 2026-04-30 12:35 | 40.63801 | -73.77921 | 23 ft | 5 kts | 352° |
| 2026-04-30 12:35 | 40.63844 | -73.77929 | 23 ft | 7 kts | 352° |
| 2026-04-30 12:36 | 40.63886 | -73.77937 | 23 ft | 4 kts | 349° |
| 2026-04-30 12:36 | 40.63908 | -73.77971 | 23 ft | 6 kts | 291° |
| 2026-04-30 12:36 | 40.63904 | -73.78032 | 23 ft | 8 kts | 263° |
| 2026-04-30 12:36 | 40.63903 | -73.78048 | 23 ft | 0 kts | 263° |